createdAt,value
2022-10-08T00:00:12.259Z,28.10
2022-10-08T00:03:03.623Z,34.90
2022-10-08T00:05:40.437Z,39.00
2022-10-08T00:08:10.571Z,46.00
2022-10-08T00:10:39.809Z,46.00
2022-10-08T00:13:14.842Z,45.60
2022-10-08T00:15:44.012Z,47.50
2022-10-08T00:18:17.643Z,53.20
2022-10-08T00:20:50.359Z,52.10
2022-10-08T00:23:19.594Z,53.60
2022-10-08T00:25:48.627Z,58.70
2022-10-08T00:28:17.737Z,54.20
2022-10-08T00:30:48.366Z,55.30
2022-10-08T00:33:17.636Z,54.20
2022-10-08T00:35:49.828Z,55.50
2022-10-08T00:38:23.234Z,57.30
2022-10-08T00:40:55.161Z,59.40
2022-10-08T00:43:48.480Z,57.10
2022-10-08T00:46:31.549Z,54.10
2022-10-08T00:49:17.934Z,50.90
2022-10-08T00:51:57.397Z,51.50
2022-10-08T00:54:26.515Z,51.30
2022-10-08T00:56:55.590Z,50.20
2022-10-08T00:59:24.812Z,53.40
2022-10-08T01:01:54.295Z,51.60
2022-10-08T01:04:26.771Z,52.60
2022-10-08T01:07:03.850Z,51.90
2022-10-08T01:10:09.903Z,50.40
2022-10-08T01:13:19.685Z,50.50
2022-10-08T01:16:01.108Z,47.20
2022-10-08T01:19:24.336Z,47.80
2022-10-08T01:22:27.757Z,45.70
2022-10-08T01:25:30.822Z,47.70
2022-10-08T01:28:39.251Z,46.10
2022-10-08T01:31:19.277Z,45.00
2022-10-08T01:34:10.146Z,44.70
2022-10-08T01:36:47.422Z,42.90
2022-10-08T01:39:26.209Z,40.10
2022-10-08T01:42:02.605Z,41.70
2022-10-08T01:45:09.908Z,38.70
2022-10-08T01:47:45.065Z,39.50
2022-10-08T01:50:20.464Z,34.20
2022-10-08T01:52:59.635Z,33.00
2022-10-08T01:55:37.419Z,27.30
2022-10-08T01:58:12.667Z,21.80
2022-10-08T02:01:27.995Z,24.40
2022-10-08T02:04:18.134Z,23.40
2022-10-08T02:06:55.814Z,19.00
2022-10-08T02:09:29.375Z,15.20
2022-10-08T02:11:58.312Z,15.20
2022-10-08T02:14:29.603Z,17.10
2022-10-08T02:17:35.933Z,16.40
2022-10-08T02:20:47.924Z,16.00
2022-10-08T02:24:02.906Z,14.50
2022-10-08T02:26:42.731Z,15.40
2022-10-08T02:29:20.890Z,14.50
2022-10-08T02:32:03.231Z,14.30
2022-10-08T02:34:45.657Z,16.30
2022-10-08T02:37:22.963Z,16.20
2022-10-08T02:40:00.082Z,18.20
2022-10-08T02:42:32.783Z,18.10
2022-10-08T02:45:19.251Z,21.70
2022-10-08T02:47:56.955Z,18.10
2022-10-08T02:50:29.077Z,17.90
2022-10-08T02:52:59.036Z,18.80
2022-10-08T02:55:41.899Z,18.70
2022-10-08T02:58:12.805Z,18.70
2022-10-08T03:01:01.338Z,16.30
2022-10-08T03:03:56.113Z,16.70
2022-10-08T03:06:31.573Z,17.30
2022-10-08T03:09:02.379Z,17.20
2022-10-08T03:11:35.881Z,18.90
2022-10-08T03:14:13.891Z,20.20
2022-10-08T03:16:46.850Z,19.70
2022-10-08T03:19:18.750Z,20.60
2022-10-08T03:21:52.746Z,21.20
2022-10-08T03:24:22.206Z,20.70
2022-10-08T03:26:53.504Z,22.60
2022-10-08T03:29:22.711Z,21.80
2022-10-08T03:31:51.742Z,20.00
2022-10-08T03:34:20.810Z,20.20
2022-10-08T03:36:51.140Z,19.80
2022-10-08T03:39:22.740Z,19.30
2022-10-08T03:41:51.858Z,21.90
2022-10-08T03:44:20.860Z,37.40
2022-10-08T03:46:49.817Z,46.50
2022-10-08T03:49:18.815Z,48.60
2022-10-08T03:51:47.952Z,52.60
2022-10-08T03:54:16.961Z,57.70
2022-10-08T03:56:46.051Z,63.70
2022-10-08T03:59:14.951Z,63.10
2022-10-08T04:01:44.106Z,59.00
2022-10-08T04:04:20.708Z,64.30
2022-10-08T04:06:53.784Z,58.50
2022-10-08T04:09:22.844Z,57.10
2022-10-08T04:11:54.063Z,56.20
2022-10-08T04:14:23.437Z,61.90
2022-10-08T04:16:55.488Z,57.00
2022-10-08T04:19:26.372Z,50.70
2022-10-08T04:21:55.423Z,41.80
2022-10-08T04:24:26.591Z,33.50
2022-10-08T04:26:57.949Z,29.60
2022-10-08T04:29:29.496Z,24.30
2022-10-08T04:31:58.635Z,22.80
2022-10-08T04:34:30.195Z,20.10
2022-10-08T04:37:04.713Z,19.80
2022-10-08T04:39:34.133Z,18.90
2022-10-08T04:42:05.997Z,18.90
2022-10-08T04:47:06.165Z,18.30
2022-10-08T04:49:35.351Z,16.60
2022-10-08T04:52:04.585Z,15.40
2022-10-08T04:54:33.714Z,16.50
2022-10-08T04:57:02.917Z,17.60
2022-10-08T04:59:32.092Z,16.90
2022-10-08T05:02:01.339Z,18.40
2022-10-08T05:04:32.614Z,17.00
2022-10-08T05:07:01.789Z,16.60
2022-10-08T05:09:33.646Z,16.60
2022-10-08T05:12:02.476Z,16.70
2022-10-08T05:14:31.301Z,17.60
2022-10-08T05:17:00.299Z,17.00
2022-10-08T05:19:31.947Z,16.90
2022-10-08T05:22:01.256Z,17.90
2022-10-08T05:24:40.839Z,16.90
2022-10-08T05:29:46.320Z,17.60
2022-10-08T05:32:15.505Z,15.60
2022-10-08T05:34:47.218Z,17.10
2022-10-08T05:37:23.053Z,18.20
2022-10-08T05:39:56.750Z,17.60
2022-10-08T05:42:25.684Z,17.70
2022-10-08T05:45:00.147Z,19.50
2022-10-08T05:47:31.991Z,20.80
2022-10-08T05:50:02.408Z,25.70
2022-10-08T05:52:33.640Z,28.20
2022-10-08T05:55:02.950Z,31.60
2022-10-08T05:57:32.213Z,38.60
2022-10-08T06:00:05.545Z,34.10
2022-10-08T06:02:50.902Z,34.20
2022-10-08T06:05:21.569Z,36.60
2022-10-08T06:07:53.077Z,35.40
2022-10-08T06:10:28.287Z,33.60
2022-10-08T06:13:00.257Z,33.80
2022-10-08T06:15:38.440Z,33.70
2022-10-08T06:18:19.779Z,34.20
2022-10-08T06:20:54.479Z,32.90
2022-10-08T06:23:36.131Z,33.20
2022-10-08T06:26:09.951Z,32.50
2022-10-08T06:28:44.485Z,29.90
2022-10-08T06:31:30.879Z,27.90
2022-10-08T06:34:24.839Z,26.00
2022-10-08T06:37:08.619Z,25.60
2022-10-08T06:39:44.905Z,24.90
2022-10-08T06:42:20.377Z,22.90
2022-10-08T06:44:49.533Z,19.30
2022-10-08T06:47:31.196Z,20.80
2022-10-08T06:50:05.323Z,19.70
2022-10-08T06:52:35.518Z,19.30
2022-10-08T06:55:11.294Z,19.50
2022-10-08T06:57:52.931Z,18.80
2022-10-08T07:00:37.950Z,17.90
2022-10-08T07:03:10.630Z,16.70
2022-10-08T07:05:39.848Z,15.70
2022-10-08T07:08:09.058Z,14.40
2022-10-08T07:10:37.809Z,12.60
2022-10-08T07:13:06.685Z,15.00
2022-10-08T07:15:35.611Z,12.10
2022-10-08T07:18:12.325Z,12.10
2022-10-08T07:20:45.880Z,13.70
2022-10-08T07:23:34.128Z,12.40
2022-10-08T07:26:31.411Z,12.60
2022-10-08T07:29:05.653Z,11.00
2022-10-08T07:31:37.589Z,15.90
2022-10-08T07:34:13.733Z,11.70
2022-10-08T07:36:43.279Z,12.80
2022-10-08T07:39:18.553Z,11.70
2022-10-08T07:41:56.790Z,15.80
2022-10-08T07:44:29.638Z,11.00
2022-10-08T07:46:58.513Z,10.70
2022-10-08T07:49:38.776Z,12.90
2022-10-08T07:52:11.774Z,10.80
2022-10-08T07:54:49.372Z,11.80
2022-10-08T07:57:35.233Z,9.70
2022-10-08T08:00:30.632Z,16.30
2022-10-08T08:03:18.875Z,10.60
2022-10-08T08:06:01.559Z,9.50
2022-10-08T08:08:45.936Z,9.40
2022-10-08T08:11:28.712Z,21.00
2022-10-08T08:14:07.777Z,15.80
2022-10-08T08:16:53.194Z,17.90
2022-10-08T08:19:28.143Z,12.50
2022-10-08T08:24:33.192Z,10.00
2022-10-08T08:27:03.848Z,12.20
2022-10-08T08:29:39.021Z,10.10
2022-10-08T08:32:10.550Z,9.90
2022-10-08T08:34:40.664Z,17.90
2022-10-08T08:37:09.934Z,13.60
2022-10-08T08:39:41.617Z,9.80
2022-10-08T08:42:44.216Z,8.70
2022-10-08T08:45:48.774Z,8.70
2022-10-08T08:48:28.574Z,8.90
2022-10-08T08:50:59.667Z,9.00
2022-10-08T08:53:31.547Z,9.00
2022-10-08T08:56:06.822Z,6.90
2022-10-08T08:59:06.177Z,7.60
2022-10-08T09:01:43.537Z,9.80
2022-10-08T09:04:31.070Z,8.10
2022-10-08T09:07:02.164Z,8.50
2022-10-08T09:09:38.224Z,8.00
2022-10-08T09:12:31.489Z,6.30
2022-10-08T09:15:01.927Z,6.50
2022-10-08T09:17:39.374Z,8.00
2022-10-08T09:20:15.448Z,8.40
2022-10-08T09:22:46.045Z,6.70
2022-10-08T09:25:22.183Z,7.80
2022-10-08T09:27:52.747Z,6.00
2022-10-08T09:30:25.157Z,6.90
2022-10-08T09:33:04.398Z,6.60
2022-10-08T09:38:32.395Z,5.30
2022-10-08T09:41:20.662Z,5.80
2022-10-08T09:44:20.156Z,5.30
2022-10-08T09:47:06.446Z,5.70
2022-10-08T09:49:39.766Z,7.10
2022-10-08T09:52:26.226Z,8.00
2022-10-08T09:55:09.248Z,7.50
2022-10-08T09:57:48.335Z,6.50
2022-10-08T10:00:32.480Z,6.50
2022-10-08T10:03:18.319Z,6.50
2022-10-08T10:05:54.275Z,5.40
2022-10-08T10:08:49.687Z,5.60
2022-10-08T10:11:54.531Z,7.10
2022-10-08T10:14:55.473Z,7.30
2022-10-08T10:17:43.008Z,6.30
2022-10-08T10:20:29.900Z,6.20
2022-10-08T10:23:12.447Z,6.50
2022-10-08T10:26:16.633Z,6.70
2022-10-08T10:28:54.009Z,7.30
2022-10-08T10:31:29.294Z,8.00
2022-10-08T10:34:07.561Z,8.00
2022-10-08T10:36:49.290Z,7.50
2022-10-08T10:42:44.082Z,8.10
2022-10-08T10:45:28.115Z,8.70
2022-10-08T10:47:58.032Z,8.50
2022-10-08T10:50:43.213Z,8.40
2022-10-08T10:53:30.962Z,8.00
2022-10-08T10:56:21.084Z,8.50
2022-10-08T10:59:40.110Z,8.70
2022-10-08T11:02:34.283Z,8.60
2022-10-08T11:05:27.718Z,8.80
2022-10-08T11:08:58.694Z,8.60
2022-10-08T11:11:48.918Z,8.60
2022-10-08T11:14:48.383Z,8.10
2022-10-08T11:17:31.020Z,9.20
2022-10-08T11:20:22.115Z,8.90
2022-10-08T11:24:20.734Z,9.60
2022-10-08T11:27:27.291Z,9.70
2022-10-08T11:30:14.448Z,8.60
2022-10-08T11:32:53.535Z,5.80
2022-10-08T11:42:06.339Z,9.80
2022-10-08T11:44:37.333Z,9.40
2022-10-08T11:47:41.674Z,13.20
2022-10-08T11:50:37.132Z,10.00
2022-10-08T11:53:22.779Z,9.70
2022-10-08T11:56:10.924Z,9.40
2022-10-08T11:58:57.465Z,9.70
2022-10-08T12:01:26.267Z,9.50
2022-10-08T12:04:09.050Z,9.40
2022-10-08T12:06:38.032Z,11.10
2022-10-08T12:09:21.268Z,9.90
2022-10-08T12:11:54.512Z,11.70
2022-10-08T12:14:23.277Z,10.30
2022-10-08T12:16:55.202Z,10.40
2022-10-08T12:19:33.448Z,11.20
2022-10-08T12:22:04.598Z,10.90
2022-10-08T12:24:39.607Z,11.40
2022-10-08T12:27:17.345Z,11.30
2022-10-08T12:30:16.949Z,12.30
2022-10-08T12:32:45.972Z,11.80
2022-10-08T12:35:47.225Z,13.00
2022-10-08T12:38:21.457Z,12.50
2022-10-08T12:41:04.318Z,12.30
2022-10-08T12:43:47.154Z,12.80
2022-10-08T12:46:56.430Z,13.30
2022-10-08T12:50:26.718Z,13.60
2022-10-08T12:52:56.216Z,14.00
2022-10-08T12:55:25.910Z,14.70
2022-10-08T12:57:55.126Z,14.00
2022-10-08T13:00:30.882Z,13.60
2022-10-08T13:03:05.991Z,14.10
2022-10-08T13:05:39.786Z,13.40
2022-10-08T13:08:42.740Z,13.00
2022-10-08T13:11:15.488Z,13.70
2022-10-08T13:13:51.121Z,13.80
2022-10-08T13:16:29.103Z,13.40
2022-10-08T13:18:58.882Z,13.20
2022-10-08T13:21:34.334Z,14.20
2022-10-08T13:24:12.263Z,14.10
2022-10-08T13:26:52.526Z,15.00
2022-10-08T13:29:21.802Z,13.70
2022-10-08T13:32:03.714Z,14.20
2022-10-08T13:34:43.729Z,15.10
2022-10-08T13:37:21.817Z,13.60
2022-10-08T13:40:12.924Z,13.80
2022-10-08T13:42:55.496Z,12.80
2022-10-08T13:45:36.927Z,12.10
2022-10-08T13:48:13.894Z,12.80
2022-10-08T13:50:56.746Z,13.10
2022-10-08T13:53:27.175Z,14.90
2022-10-08T13:56:08.409Z,15.40
2022-10-08T13:58:37.761Z,14.90
2022-10-08T14:01:13.678Z,13.30
2022-10-08T14:03:44.885Z,14.00
2022-10-08T14:06:25.306Z,14.70
2022-10-08T14:09:03.344Z,12.00
2022-10-08T14:11:35.030Z,12.50
2022-10-08T14:14:04.032Z,11.90
2022-10-08T14:16:33.199Z,11.60
2022-10-08T14:19:03.630Z,10.30
2022-10-08T14:21:33.376Z,6.30
2022-10-08T14:24:03.068Z,7.00
2022-10-08T14:26:36.210Z,5.10
2022-10-08T14:29:18.004Z,5.90
2022-10-08T14:31:47.191Z,5.20
2022-10-08T14:34:16.159Z,5.20
2022-10-08T14:36:50.302Z,4.00
2022-10-08T14:39:19.338Z,5.70
2022-10-08T14:41:48.926Z,4.20
2022-10-08T14:44:22.280Z,5.90
2022-10-08T14:46:55.566Z,6.00
2022-10-08T14:49:24.608Z,7.90
2022-10-08T14:51:53.509Z,7.70
2022-10-08T14:54:22.626Z,9.70
2022-10-08T14:56:51.890Z,9.60
2022-10-08T14:59:39.063Z,8.80
2022-10-08T15:02:11.911Z,8.90
2022-10-08T15:04:40.836Z,8.80
2022-10-08T15:07:09.802Z,8.90
2022-10-08T15:09:40.783Z,9.80
2022-10-08T15:12:09.564Z,8.30
2022-10-08T15:14:38.645Z,7.10
2022-10-08T15:17:07.892Z,7.00
2022-10-08T15:19:36.651Z,7.80
2022-10-08T15:22:05.492Z,7.40
2022-10-08T15:24:34.399Z,7.20
2022-10-08T15:27:03.518Z,7.60
2022-10-08T15:29:32.533Z,10.60
2022-10-08T15:32:04.087Z,10.00
2022-10-08T15:34:33.690Z,8.80
2022-10-08T15:37:02.959Z,10.00
2022-10-08T15:39:35.614Z,9.70
2022-10-08T15:42:05.749Z,10.30
2022-10-08T15:44:36.618Z,9.80
2022-10-08T15:47:08.001Z,10.90
2022-10-08T15:49:42.608Z,11.50
2022-10-08T15:52:21.275Z,11.00
2022-10-08T15:54:49.949Z,11.30
2022-10-08T15:57:19.324Z,12.70
2022-10-08T15:59:48.179Z,13.00
2022-10-08T16:02:18.271Z,12.20
2022-10-08T16:04:48.042Z,14.60
2022-10-08T16:07:17.340Z,16.40
2022-10-08T16:09:46.040Z,18.50
2022-10-08T16:12:14.971Z,20.00
2022-10-08T16:14:44.083Z,20.50
2022-10-08T16:17:13.353Z,19.40
2022-10-08T16:19:42.479Z,18.80
2022-10-08T16:22:11.297Z,16.90
2022-10-08T16:24:40.293Z,17.40
2022-10-08T16:27:09.437Z,18.20
2022-10-08T16:29:38.684Z,17.30
2022-10-08T16:32:07.512Z,18.30
2022-10-08T16:34:36.313Z,17.10
2022-10-08T16:37:05.234Z,18.00
2022-10-08T16:39:34.073Z,17.60
2022-10-08T16:42:03.008Z,17.40
2022-10-08T16:44:31.989Z,14.90
2022-10-08T16:47:01.029Z,15.30
2022-10-08T16:49:30.327Z,17.70
2022-10-08T16:52:08.693Z,23.00
2022-10-08T16:54:38.284Z,30.70
2022-10-08T16:57:10.444Z,25.90
2022-10-08T16:59:39.580Z,21.00
2022-10-08T17:02:10.726Z,17.20
2022-10-08T17:04:39.989Z,14.30
2022-10-08T17:07:09.049Z,14.00
2022-10-08T17:09:38.081Z,13.80
2022-10-08T17:12:09.950Z,13.30
2022-10-08T17:14:38.817Z,12.60
2022-10-08T17:17:08.119Z,13.50
2022-10-08T17:19:37.187Z,13.40
2022-10-08T17:22:06.286Z,15.40
2022-10-08T17:24:42.276Z,16.70
2022-10-08T17:27:13.577Z,17.30
2022-10-08T17:29:43.255Z,16.50
2022-10-08T17:32:12.268Z,15.90
2022-10-08T17:34:41.320Z,15.80
2022-10-08T17:37:10.908Z,13.40
2022-10-08T17:39:40.057Z,13.60
2022-10-08T17:42:09.215Z,13.80
2022-10-08T17:44:39.691Z,12.70
2022-10-08T17:47:08.835Z,12.50
2022-10-08T17:49:37.870Z,12.80
2022-10-08T17:52:07.629Z,13.80
2022-10-08T17:54:37.064Z,15.90
2022-10-08T17:57:06.161Z,15.70
2022-10-08T17:59:35.052Z,15.10
2022-10-08T18:02:04.179Z,14.80
2022-10-08T18:04:33.623Z,15.70
2022-10-08T18:07:09.060Z,14.40
2022-10-08T18:09:40.958Z,15.30
2022-10-08T18:12:12.384Z,15.80
2022-10-08T18:14:41.408Z,15.80
2022-10-08T18:17:23.593Z,16.70
2022-10-08T18:19:52.675Z,17.30
2022-10-08T18:22:23.263Z,18.30
2022-10-08T18:24:52.736Z,18.60
2022-10-08T18:27:21.867Z,17.90
2022-10-08T18:29:53.821Z,18.00
2022-10-08T18:32:22.978Z,17.20
2022-10-08T18:34:51.988Z,20.00
2022-10-08T18:37:21.062Z,17.40
2022-10-08T18:39:51.558Z,15.40
2022-10-08T18:42:20.688Z,18.60
2022-10-08T18:44:49.617Z,16.20
2022-10-08T18:47:19.572Z,15.30
2022-10-08T18:49:48.371Z,14.70
2022-10-08T18:52:21.370Z,13.60
2022-10-08T18:54:53.500Z,13.30
2022-10-08T18:57:22.908Z,12.60
2022-10-08T18:59:51.723Z,10.50
2022-10-08T19:02:20.946Z,9.40
2022-10-08T19:04:50.369Z,8.80
2022-10-08T19:07:19.380Z,8.50
2022-10-08T19:09:48.328Z,9.30
2022-10-08T19:12:17.590Z,8.40
2022-10-08T19:14:51.078Z,7.60
2022-10-08T19:17:22.542Z,7.20
2022-10-08T19:19:51.808Z,7.40
2022-10-08T19:22:21.356Z,6.30
2022-10-08T19:24:51.087Z,4.70
2022-10-08T19:27:22.241Z,4.30
2022-10-08T19:29:51.751Z,4.10
2022-10-08T19:32:20.946Z,4.10
2022-10-08T19:34:49.883Z,4.30
2022-10-08T19:37:19.254Z,3.90
2022-10-08T19:39:48.961Z,3.40
2022-10-08T19:42:18.039Z,3.80
2022-10-08T19:44:46.952Z,3.40
2022-10-08T19:47:15.792Z,4.30
2022-10-08T19:49:47.786Z,24.00
2022-10-08T19:52:28.682Z,3.40
2022-10-08T19:54:59.190Z,3.50
2022-10-08T19:57:29.505Z,3.80
2022-10-08T20:00:01.119Z,4.00
2022-10-08T20:02:37.761Z,3.50
2022-10-08T20:05:07.883Z,3.50
2022-10-08T20:07:37.134Z,4.40
2022-10-08T20:10:07.107Z,6.00
2022-10-08T20:12:36.304Z,4.70
2022-10-08T20:15:11.117Z,4.60
2022-10-08T20:17:39.956Z,4.80
2022-10-08T20:20:31.214Z,3.80
2022-10-08T20:22:58.809Z,4.70
2022-10-08T20:25:30.740Z,3.60
2022-10-08T20:27:59.777Z,4.00
2022-10-08T20:30:29.489Z,4.50
2022-10-08T20:32:58.248Z,5.00
2022-10-08T20:35:27.089Z,4.70
2022-10-08T20:37:55.853Z,4.50
2022-10-08T20:40:24.666Z,4.70
2022-10-08T20:42:53.497Z,4.60
2022-10-08T20:45:22.425Z,4.20
2022-10-08T20:47:51.475Z,4.50
2022-10-08T20:50:20.297Z,5.00
2022-10-08T20:52:51.327Z,5.10
2022-10-08T20:55:20.261Z,4.90
2022-10-08T20:57:49.069Z,5.50
2022-10-08T21:00:18.055Z,5.70
2022-10-08T21:02:47.101Z,5.50
2022-10-08T21:05:16.110Z,4.90
2022-10-08T21:07:46.011Z,6.20
2022-10-08T21:10:14.926Z,5.10
2022-10-08T21:12:43.934Z,6.30
2022-10-08T21:15:12.680Z,6.30
2022-10-08T21:17:41.472Z,4.90
2022-10-08T21:20:10.177Z,6.10
2022-10-08T21:22:38.933Z,6.40
2022-10-08T21:25:11.089Z,6.50
2022-10-08T21:27:40.355Z,6.60
2022-10-08T21:30:09.982Z,6.00
2022-10-08T21:32:38.771Z,6.20
2022-10-08T21:35:08.216Z,7.80
2022-10-08T21:37:36.959Z,8.90
2022-10-08T21:40:09.101Z,8.10
2022-10-08T21:42:42.009Z,7.50
2022-10-08T21:45:14.172Z,7.00
2022-10-08T21:47:42.983Z,6.30
2022-10-08T21:50:11.804Z,7.00
2022-10-08T21:52:40.647Z,8.40
2022-10-08T21:55:09.571Z,8.40
2022-10-08T21:57:38.263Z,12.00
2022-10-08T22:00:11.914Z,16.00
2022-10-08T22:02:43.187Z,9.90
2022-10-08T22:05:12.157Z,9.10
2022-10-08T22:07:41.010Z,7.60
2022-10-08T22:10:09.825Z,7.00
2022-10-08T22:12:38.682Z,6.20
2022-10-08T22:15:08.141Z,6.40
2022-10-08T22:17:36.886Z,5.50
2022-10-08T22:20:06.096Z,5.30
2022-10-08T22:22:35.122Z,5.40
2022-10-08T22:25:04.404Z,6.40
2022-10-08T22:27:33.533Z,6.10
2022-10-08T22:30:02.476Z,5.80
2022-10-08T22:32:31.394Z,5.60
2022-10-08T22:35:06.539Z,5.70
2022-10-08T22:37:35.495Z,5.90
2022-10-08T22:40:04.700Z,6.10
2022-10-08T22:42:36.445Z,6.60
2022-10-08T22:45:06.822Z,6.40
2022-10-08T22:47:35.691Z,6.00
2022-10-08T22:50:06.007Z,5.80
2022-10-08T22:52:34.941Z,6.60
2022-10-08T22:55:04.095Z,6.20
2022-10-08T22:57:32.934Z,6.40
2022-10-08T23:00:01.941Z,5.90
2022-10-08T23:02:30.939Z,6.30
2022-10-08T23:04:59.907Z,5.90
2022-10-08T23:07:28.771Z,5.40
2022-10-08T23:10:00.201Z,5.70
2022-10-08T23:12:29.242Z,5.70
2022-10-08T23:14:58.146Z,5.60
2022-10-08T23:17:27.019Z,5.90
2022-10-08T23:19:55.908Z,5.70
2022-10-08T23:22:25.284Z,5.60
2022-10-08T23:24:54.164Z,5.30
2022-10-08T23:27:25.219Z,5.60
2022-10-08T23:29:56.250Z,6.10
2022-10-08T23:32:25.138Z,5.60
2022-10-08T23:34:54.094Z,5.10
2022-10-08T23:37:35.177Z,5.90
2022-10-08T23:40:06.058Z,5.10
2022-10-08T23:42:38.382Z,5.40
2022-10-08T23:45:08.039Z,5.30
2022-10-08T23:47:37.657Z,4.80
2022-10-08T23:50:10.538Z,5.90
2022-10-08T23:52:39.530Z,5.50
2022-10-08T23:55:09.007Z,5.20
2022-10-08T23:57:37.919Z,4.90
